LDSB/BWK METAR and TAF weather

Enter ICAO airport designator
Station Type Date Time Source
LDSB METAR 2021/04/13 13:30 UTC NOAA

LDSB 131330Z 21009KT 9999 SCT025 12/09 Q1013


Station Type Date Time Source
LDSB Decoded METAR 2021/04/13 13:30 UTC NOAA

Brac, Croatia (LDSB) 43-17-09N 016-40-47E
Apr 13, 2021 - 09:30 AM EDT / 2021.04.13 1330 UTC
Wind: from the SSW (210 degrees) at 10 MPH (9 KT):0
Visibility: greater than 7 mile(s):0
Sky conditions: partly cloudy
Temperature: 53 F (12 C)
Dew Point: 48 F (9 C)
Relative Humidity: 81%
Pressure (altimeter): 29.91 in. Hg (1013 hPa)
ob: LDSB 131330Z 21009KT 9999 SCT025 12/09 Q1013
cycle: 13

Station Type Date Time Source
LDSB TAF 2021/04/13 15:09 UTC NOAA

TAF
AMD TAF
AMD LDSB 131505Z 1315/1412 CNL

Example: see airport list